METAR Data
IDs: Format: Raw Decoded Include TAF

Data at: 1725 UTC 03 Jun 2020

KTBN 031656Z AUTO 23007KT 10SM FEW033 30/21 A2994 RMK AO2 SLP129 T03000211
KTBN 031556Z AUTO 24009G16KT 10SM CLR 28/20 A2997 RMK AO2 SLP140 T02840204
KTBN 031456Z AUTO 26007KT 10SM CLR 27/20 A2998 RMK AO2 SLP144 T02710204 50001
KTBN 031356Z AUTO 23007KT 10SM CLR 25/19 A2998 RMK AO2 SLP144 T02500193
KTBN 031256Z AUTO 22007KT 10SM CLR 23/18 A2998 RMK AO2 SLP144 T02250180
KTBN 031156Z AUTO 21004KT 10SM CLR 20/17 A2998 RMK AO2 SLP145 70001 T01980166 10202 20183 55004
KTBN 031056Z AUTO 21005KT 10SM CLR 19/16 A2997 RMK AO2 SLP141 T01860160
KTBN 030956Z AUTO 21005KT 10SM CLR 19/16 A2998 RMK AO2 SLP145 T01860162
KTBN 030856Z AUTO 21004KT 10SM CLR 18/17 A2999 RMK AO2 SLP149 T01840165 57010
KTBN 030756Z AUTO 22004KT 10SM CLR 19/17 A2999 RMK AO2 SLP148 T01920166
KTBN 030656Z AUTO 21005KT 10SM CLR 20/17 A3001 RMK AO2 SLP155 T01980170
KTBN 030556Z AUTO 20005KT 10SM CLR 20/17 A3002 RMK AO2 SLP158 T02020174 10270 20201 402990169 50005
KTBN 030456Z AUTO 20005KT 10SM CLR 21/17 A3002 RMK AO2 SLP158 T02100170
KTBN 030356Z AUTO 20005KT 10SM CLR 22/16 A3000 RMK AO2 SLP151 T02190164
KTBN 030256Z AUTO 19004KT 10SM CLR 22/17 A3000 RMK AO2 SLPNO T02240171 53000
KTBN 030156Z AUTO 17005KT 10SM CLR 23/18 A3000 RMK AO2 SLP152 T02330184
KTBN 030056Z AUTO 18003KT 10SM CLR 25/18 A3000 RMK AO2 SLP152 T02530182
KTBN 022356Z AUTO 19005KT 10SM CLR 27/18 A3000 RMK AO2 SLP152 T02690179 10299 20269 57010
KTBN 022256Z AUTO 20004KT 10SM CLR 28/18 A3002 RMK AO2 SLP159 T02820180
KTBN 022156Z AUTO 25004KT 10SM CLR 28/18 A3003 RMK AO2 SLP162 T02800178
KTBN 022056Z AUTO 24004KT 10SM CLR 28/16 A3003 RMK AO2 SLP162 57017
KTBN 021956Z AUTO 21006KT 10SM CLR 30/15 A3005 RMK AO2 SLP168 T02960149
KTBN 021856Z AUTO 21004KT 10SM CLR 29/16 A3007 RMK AO2 SLP175
KTBN 021756Z AUTO 19011G15KT 10SM FEW200 28/16 A3009 RMK AO2 SLP182 6//// T02800159 10281 20191 $
KTBN 021656Z AUTO 25004KT 10SM CLR 27/17 A3010 RMK AO2 SLP185 T02690174 $
KTBN 021556Z AUTO 24007KT 10SM CLR 26/17 A3011 RMK AO2 SLP189 T02640169 $
KTBN 021457Z 24008KT 10SM FEW250 23/16 A3014 RMK SLPNO WND DATA ESTMD ALSTG ESTMD RVRNO $
KTBN 021356Z AUTO 22009KT 10SM CLR 23/16 A3012 RMK AO2 SLP193 T02320160
KTBN 021256Z AUTO 22007KT 10SM CLR 21/16 A3012 RMK AO2 SLP194 T02080156
KTBN 021156Z AUTO 19005KT 10SM CLR 19/15 A3011 RMK AO2 SLP189 T01900153 10195 20169 53008
KTBN 021056Z AUTO 20005KT 10SM CLR 17/15 A3009 RMK AO2 SLP183 T01710149
KTBN 020956Z AUTO 20005KT 10SM CLR 17/15 A3009 RMK AO2 SLP183 T01700150
KTBN 020856Z AUTO 20005KT 10SM CLR 17/15 A3008 RMK AO2 SLP180 T01700148 55004
KTBN 020756Z AUTO 19005KT 10SM CLR 19/15 A3008 RMK AO2 SLP179 T01850150
KTBN 020656Z AUTO 19006KT 10SM CLR 19/15 A3009 RMK AO2 SLP183 T01880151
KTBN 020556Z AUTO 18006KT 10SM CLR 20/15 A3010 RMK AO2 SLP186 T01960148 10263 20196 402820146 58007